Map

Track Data

SID SEASON NUMBER BASIN SUBBASIN NAME ISO_TIME NATURE LAT LON WMO_WIND WMO_PRES WMO_AGENCY TRACK_TYPE DIST2LAND LANDFALL IFLAG USA_AGENCY USA_ATCF_ID USA_LAT USA_LON USA_RECORD USA_STATUS USA_WIND USA_PRES USA_SSHS USA_R34_NE USA_R34_SE USA_R34_SW USA_R34_NW USA_R50_NE USA_R50_SE USA_R50_SW USA_R50_NW USA_R64_NE USA_R64_SE USA_R64_SW USA_R64_NW USA_POCI USA_ROCI USA_RMW USA_EYE TOKYO_LAT TOKYO_LON TOKYO_GRADE TOKYO_WIND TOKYO_PRES TOKYO_R50_DIR TOKYO_R50_LONG TOKYO_R50_SHORT TOKYO_R30_DIR TOKYO_R30_LONG TOKYO_R30_SHORT TOKYO_LAND CMA_LAT CMA_LON CMA_CAT CMA_WIND CMA_PRES HKO_LAT HKO_LON HKO_CAT HKO_WIND HKO_PRES NEWDELHI_LAT NEWDELHI_LON NEWDELHI_GRADE NEWDELHI_WIND NEWDELHI_PRES NEWDELHI_CI NEWDELHI_DP NEWDELHI_POCI REUNION_LAT REUNION_LON REUNION_TYPE REUNION_WIND REUNION_PRES REUNION_TNUM REUNION_CI REUNION_RMW REUNION_R34_NE REUNION_R34_SE REUNION_R34_SW REUNION_R34_NW REUNION_R50_NE REUNION_R50_SE REUNION_R50_SW REUNION_R50_NW REUNION_R64_NE REUNION_R64_SE REUNION_R64_SW REUNION_R64_NW BOM_LAT BOM_LON BOM_TYPE BOM_WIND BOM_PRES BOM_TNUM BOM_CI BOM_RMW BOM_R34_NE BOM_R34_SE BOM_R34_SW BOM_R34_NW BOM_R50_NE BOM_R50_SE BOM_R50_SW BOM_R50_NW BOM_R64_NE BOM_R64_SE BOM_R64_SW BOM_R64_NW BOM_ROCI BOM_POCI BOM_EYE BOM_POS_METHOD BOM_PRES_METHOD NADI_LAT NADI_LON NADI_CAT NADI_WIND NADI_PRES WELLINGTON_LAT WELLINGTON_LON WELLINGTON_WIND WELLINGTON_PRES DS824_LAT DS824_LON DS824_STAGE DS824_WIND DS824_PRES TD9636_LAT TD9636_LON TD9636_STAGE TD9636_WIND TD9636_PRES TD9635_LAT TD9635_LON TD9635_WIND TD9635_PRES TD9635_ROCI NEUMANN_LAT NEUMANN_LON NEUMANN_CLASS NEUMANN_WIND NEUMANN_PRES MLC_LAT MLC_LON MLC_CLASS MLC_WIND MLC_PRES USA_GUST BOM_GUST BOM_GUST_PER REUNION_GUST REUNION_GUST_PER USA_SEAHGT USA_SEARAD_NE USA_SEARAD_SE USA_SEARAD_SW USA_SEARAD_NW STORM_SPEED STORM_DIR
2017026S16127 2017 2 SI WA NOT_NAMED 2017-01-25 12:00:00 NR -16.0000 126.600 main 0 0 O_____________ jtwc_sh SH032017 -16.0000 126.600 DB 20 1007 -3 1006 190 50 7 254
2017026S16127 2017 2 SI WA NOT_NAMED 2017-01-25 15:00:00 NR -16.0949 126.245 main 0 0 P_____________ SH032017 -16.0949 126.245 DB 20 1007 -3 1006 190 50 8 255
2017026S16127 2017 2 SI WA NOT_NAMED 2017-01-25 18:00:00 NR -16.2000 125.800 main 0 0 O_____________ jtwc_sh SH032017 -16.2000 125.800 DB 20 1007 -3 1006 190 50 10 257
2017026S16127 2017 2 SI WA NOT_NAMED 2017-01-25 21:00:00 NR -16.3277 125.215 main 0 0 P_____________ SH032017 -16.3277 125.215 DB 20 1007 -3 1006 190 37 12 255
2017026S16127 2017 2 SI WA NOT_NAMED 2017-01-26 00:00:00 NR -16.5000 124.600 main 0 0 O_____________ jtwc_sh SH032017 -16.5000 124.600 DB 20 1007 -3 1006 190 25 11 247
2017026S16127 2017 2 SI WA NOT_NAMED 2017-01-26 03:00:00 NR -16.7644 124.130 main 0 0 P_____________ SH032017 -16.7644 124.130 DB 22 1002 -3 1005 195 27 11 242
2017026S16127 2017 2 SI WA NOT_NAMED 2017-01-26 06:00:00 TS -17.0000 123.600 main 15 0 O_____________ jtwc_sh SH032017 -17.0000 123.600 TD 25 998 -1 1005 200 30 13 257
2017026S16127 2017 2 SI WA NOT_NAMED 2017-01-26 09:00:00 TS -17.0657 122.785 main 0 0 P_____________ SH032017 -17.0657 122.785 TD 25 998 -1 1004 205 30 15 266
2017026S16127 2017 2 SI WA NOT_NAMED 2017-01-26 12:00:00 TS -17.1000 122.000 main 30 30 O_____________ jtwc_sh SH032017 -17.1000 122.000 TD 25 998 -1 1004 210 30 12 262
2017026S16127 2017 2 SI WA NOT_NAMED 2017-01-26 15:00:00 TS -17.2268 121.555 main 64 64 P_____________ SH032017 -17.2268 121.555 TD 25 1001 -1 1002 200 30 8 249
2017026S16127 2017 2 SI WA NOT_NAMED 2017-01-26 18:00:00 TS -17.4000 121.200 main 98 98 O_____________ jtwc_sh SH032017 -17.4000 121.200 TD 25 1004 -1 1001 190 30 9 245
2017026S16127 2017 2 SI WA NOT_NAMED 2017-01-26 21:00:00 TS -17.5848 120.737 main 148 148 P_____________ SH032017 -17.5848 120.737 TD 27 1001 -1 1001 190 30 10 247
2017026S16127 2017 2 SI WA NOT_NAMED 2017-01-27 00:00:00 TS -17.8000 120.200 main 181 181 O_____________ jtwc_sh SH032017 -17.8000 120.200 TD 30 998 -1 1002 190 30 12 248
2017026S16127 2017 2 SI WA NOT_NAMED 2017-01-27 03:00:00 TS -18.0350 119.572 main 221 201 P_____________ SH032017 -18.0350 119.572 TD 32 996 -1 1001 207 30 13 248
2017026S16127 2017 2 SI WA NOT_NAMED 2017-01-27 06:00:00 TS -18.3000 118.900 main 202 187 O_____________ jtwc_sh SH032017 -18.3000 118.900 TS 35 994 0 30 40 40 30 1001 225 30 14 246
2017026S16127 2017 2 SI WA NOT_NAMED 2017-01-27 09:00:00 TS -18.5924 118.242 main 192 172 P_____________ SH032017 -18.5924 118.242 TS 35 994 0 45 60 60 37 1001 227 30 14 244
2017026S16127 2017 2 SI WA NOT_NAMED 2017-01-27 12:00:00 TS -18.9000 117.600 main 175 159 O_____________ jtwc_sh SH032017 -18.9000 117.600 TS 35 994 0 60 80 80 45 1001 230 30 13 243
2017026S16127 2017 2 SI WA NOT_NAMED 2017-01-27 15:00:00 TS -19.1844 117.022 main 157 124 P_____________ SH032017 -19.1844 117.022 TS 37 993 0 65 85 82 47 1001 240 27 13 242
2017026S16127 2017 2 SI WA NOT_NAMED 2017-01-27 18:00:00 TS -19.5000 116.400 main 126 115 O_____________ jtwc_sh SH032017 -19.5000 116.400 TS 40 992 0 70 90 85 50 1001 250 25 50 15 240
2017026S16127 2017 2 SI WA NOT_NAMED 2017-01-27 21:00:00 TS -19.9298 115.646 main 128 118 P_____________ SH032017 -19.9298 115.646 TS 45 988 0 70 90 85 50 1001 250 25 17 242
2017026S16127 2017 2 SI WA NOT_NAMED 2017-01-28 00:00:00 TS -20.3000 114.800 main 144 144 O_____________ jtwc_sh SH032017 -20.3000 114.800 TS 50 985 0 70 90 85 50 1001 250 25 17 251
2017026S16127 2017 2 SI WA NOT_NAMED 2017-01-28 03:00:00 TS -20.4902 113.885 main 156 156 P_____________ SH032017 -20.4902 113.885 TS 50 985 0 70 90 85 50 1001 250 25 17 263
2017026S16127 2017 2 SI WA NOT_NAMED 2017-01-28 06:00:00 TS -20.5000 113.000 main 187 187 O_____________ jtwc_sh SH032017 -20.5000 113.000 TS 50 985 0 70 90 85 50 1001 250 25 16 276
2017026S16127 2017 2 SI WA NOT_NAMED 2017-01-28 09:00:00 TS -20.3373 112.224 main 258 258 P_____________ SH032017 -20.3373 112.224 TS 47 987 0 60 87 85 50 1001 240 30 14 287
2017026S16127 2017 2 SI WA NOT_NAMED 2017-01-28 12:00:00 TS -20.1000 111.600 main 320 320 O_____________ jtwc_sh SH032017 -20.1000 111.600 TS 45 989 0 50 85 85 50 1002 230 35 11 291
2017026S16127 2017 2 SI WA NOT_NAMED 2017-01-28 15:00:00 TS -19.9421 111.148 main 375 375 P_____________ SH032017 -19.9421 111.148 TS 42 992 0 40 90 90 47 1002 225 35 8 292
2017026S16127 2017 2 SI WA NOT_NAMED 2017-01-28 18:00:00 TS -19.8000 110.800 main 407 407 O_____________ jtwc_sh SH032017 -19.8000 110.800 TS 40 996 0 30 95 95 45 1002 220 35 7 294
2017026S16127 2017 2 SI WA NOT_NAMED 2017-01-28 21:00:00 TS -19.6425 110.428 main 454 454 P_____________ SH032017 -19.6425 110.428 TS 37 997 0 30 95 95 45 1002 220 35 7 294
2017026S16127 2017 2 SI WA NOT_NAMED 2017-01-29 00:00:00 TS -19.5000 110.100 main 486 486 O_____________ jtwc_sh SH032017 -19.5000 110.100 TS 35 998 0 30 95 95 45 1002 220 35 6 299
2017026S16127 2017 2 SI WA NOT_NAMED 2017-01-29 03:00:00 TS -19.3318 109.826 main 524 524 P_____________ SH032017 -19.3318 109.826 TS 32 999 -1 1002 220 40 5 293
2017026S16127 2017 2 SI WA NOT_NAMED 2017-01-29 06:00:00 TS -19.3000 109.600 main 542 536 O_____________ jtwc_sh SH032017 -19.3000 109.600 TD 30 1000 -1 1002 220 45 4 247
2017026S16127 2017 2 SI WA NOT_NAMED 2017-01-29 09:00:00 TS -19.5000 109.400 main 548 548 O_____________ jtwc_sh SH032017 -19.5000 109.400 TD 30 1000 -1 1002 220 45 8 285
2017026S16127 2017 2 SI WA NOT_NAMED 2017-01-29 12:00:00 TS -19.1000 108.800 main 625 625 O_____________ jtwc_sh SH032017 -19.1000 108.800 TD 30 1000 -1 1002 220 45 11 297
2017026S16127 2017 2 SI WA NOT_NAMED 2017-01-29 15:00:00 TS -18.9975 108.353 main 667 667 P_____________ SH032017 -18.9975 108.353 TD 30 1000 -1 1002 220 45 8 270
2017026S16127 2017 2 SI WA NOT_NAMED 2017-01-29 18:00:00 TS -19.1000 108.000 main 698 698 O_____________ jtwc_sh SH032017 -19.1000 108.000 TD 30 1000 -1 1002 220 45 7 252
2017026S16127 2017 2 SI WA NOT_NAMED 2017-01-29 21:00:00 TS -19.2047 107.665 main 721 721 P_____________ SH032017 -19.2047 107.665 TD 27 1002 -1 1002 220 45 7 246
2017026S16127 2017 2 SI WA NOT_NAMED 2017-01-30 00:00:00 TS -19.4000 107.300 main 745 745 O_____________ jtwc_sh SH032017 -19.4000 107.300 TD 25 1004 -1 1002 220 45 9 239
2017026S16127 2017 2 SI WA NOT_NAMED 2017-01-30 03:00:00 TS -19.6850 106.830 main 775 775 P_____________ SH032017 -19.6850 106.830 TD 25 1002 -1 1002 220 45 11 237
2017026S16127 2017 2 SI WA NOT_NAMED 2017-01-30 06:00:00 TS -20.0000 106.300 main 809 809 O_____________ jtwc_sh SH032017 -20.0000 106.300 TD 25 1000 -1 1002 220 45 12 240
2017026S16127 2017 2 SI WA NOT_NAMED 2017-01-30 09:00:00 TS -20.2726 105.735 main 856 856 P_____________ SH032017 -20.2726 105.735 TD 25 1002 -1 1002 220 45 11 244
2017026S16127 2017 2 SI WA NOT_NAMED 2017-01-30 12:00:00 TS -20.5000 105.200 main 899 899 O_____________ jtwc_sh SH032017 -20.5000 105.200 TD 25 1004 -1 1002 220 45 10 246
2017026S16127 2017 2 SI WA NOT_NAMED 2017-01-30 15:00:00 TS -20.6647 104.785 main 933 933 P_____________ SH032017 -20.6647 104.785 TD 22 1005 -1 1004 225 55 8 248
2017026S16127 2017 2 SI WA NOT_NAMED 2017-01-30 18:00:00 NR -20.8000 104.400 main 971 971 O_____________ jtwc_sh SH032017 -20.8000 104.400 DB 20 1007 -3 1007 230 65 8 249
2017026S16127 2017 2 SI WA NOT_NAMED 2017-01-30 21:00:00 NR -20.9574 103.958 main 1006 1006 P_____________ SH032017 -20.9574 103.958 DB 20 1003 -3 1006 235 67 9 250
2017026S16127 2017 2 SI WA NOT_NAMED 2017-01-31 00:00:00 NR -21.1000 103.500 main 1055 1055 O_____________ jtwc_sh SH032017 -21.1000 103.500 DB 20 999 -3 1005 240 70 8 253
2017026S16127 2017 2 SI WA NOT_NAMED 2017-01-31 03:00:00 NR -21.1995 103.087 main 1093 1093 P_____________ SH032017 -21.1995 103.087 DB 20 1001 -3 1005 240 70 9 257
2017026S16127 2017 2 SI WA NOT_NAMED 2017-01-31 06:00:00 NR -21.3000 102.600 main 1143 1143 O_____________ jtwc_sh SH032017 -21.3000 102.600 DB 20 1004 -3 1005 240 70 11 258
2017026S16127 2017 2 SI WA NOT_NAMED 2017-01-31 09:00:00 NR -21.4276 101.937 main 1212 1212 P_____________ SH032017 -21.4276 101.937 DB 20 1005 -3 1005 240 70 13 257
2017026S16127 2017 2 SI WA NOT_NAMED 2017-01-31 12:00:00 NR -21.6000 101.200 main 1281 1281 O_____________ jtwc_sh SH032017 -21.6000 101.200 DB 20 1007 -3 1005 240 70 14 253
2017026S16127 2017 2 SI WA NOT_NAMED 2017-01-31 15:00:00 NR -21.8499 100.485 main 1349 1349 P_____________ SH032017 -21.8499 100.485 DB 20 1004 -3 1006 240 55 14 249
2017026S16127 2017 2 SI WA NOT_NAMED 2017-01-31 18:00:00 NR -22.1000 99.8000 main 1411 1411 O_____________ jtwc_sh SH032017 -22.1000 99.8000 DB 20 1002 -3 1007 240 40 13 251
2017026S16127 2017 2 SI WA NOT_NAMED 2017-01-31 21:00:00 NR -22.2645 99.1921 main 1467 1467 P_____________ SH032017 -22.2645 99.1921 DB 20 1002 -3 1007 240 40 12 255
2017026S16127 2017 2 SI WA NOT_NAMED 2017-02-01 00:00:00 NR -22.4000 98.6000 main 1525 1525 O_____________ jtwc_sh SH032017 -22.4000 98.6000 DB 20 1002 -3 1007 240 40 12 256
2017026S16127 2017 2 SI WA NOT_NAMED 2017-02-01 03:00:00 NR -22.5420 97.9797 main 1583 1583 P_____________ SH032017 -22.5420 97.9797 DB 20 1004 -3 1007 240 40 12 256
2017026S16127 2017 2 SI WA NOT_NAMED 2017-02-01 06:00:00 NR -22.7000 97.3000 main 1650 1650 O_____________ jtwc_sh SH032017 -22.7000 97.3000 DB 20 1006 -3 1007 240 40 14 255
2017026S16127 2017 2 SI WA NOT_NAMED 2017-02-01 09:00:00 NR -22.9004 96.4853 main 1727 1727 P_____________ SH032017 -22.9004 96.4853 DB 20 1006 -3 1007 240 40 15 255
2017026S16127 2017 2 SI WA NOT_NAMED 2017-02-01 12:00:00 SS -23.1000 95.7000 main 1805 1805 O_____________ jtwc_sh SH032017 -23.1000 95.7000 SD 20 1006 -2 1008 240 40 13 252
2017026S16127 2017 2 SI WA NOT_NAMED 2017-02-01 15:00:00 SS -23.2939 95.1501 main 1852 1852 P_____________ SH032017 -23.2939 95.1501 SD 20 1006 -2 1008 240 40 11 253
2017026S16127 2017 2 SI WA NOT_NAMED 2017-02-01 18:00:00 NR -23.4000 94.6000 main 1909 1909 O_____________ jtwc_sh SH032017 -23.4000 94.6000 DB 20 1007 -3 1008 240 40 12 270
2017026S16127 2017 2 SI WA NOT_NAMED 2017-02-01 21:00:00 NR -23.3002 93.8288 main 1991 1991 P_____________ SH032017 -23.3002 93.8288 DB 20 1007 -3 1008 240 40 15 278
2017026S16127 2017 2 SI WA NOT_NAMED 2017-02-02 00:00:00 SS -23.2000 93.0000 main 2073 2073 O_____________ jtwc_sh SH032017 -23.2000 93.0000 SD 20 1007 -2 1008 240 40 15 269
2017026S16127 2017 2 SI WA NOT_NAMED 2017-02-02 03:00:00 SS -23.3271 92.2357 main 2150 2150 P_____________ SH032017 -23.3271 92.2357 SD 20 1007 -2 1008 240 40 14 258
2017026S16127 2017 2 SI WA NOT_NAMED 2017-02-02 06:00:00 SS -23.5000 91.5000 main 2215 2215 O_____________ jtwc_sh SH032017 -23.5000 91.5000 SD 20 1007 -2 1008 240 40 13 259
2017026S16127 2017 2 SI WA NOT_NAMED 2017-02-02 09:00:00 SS -23.5870 90.8001 main 2282 2282 P_____________ SH032017 -23.5870 90.8001 SD 20 1006 -2 1008 240 40 13 266
2017026S16127 2017 2 SI WA NOT_NAMED 2017-02-02 12:00:00 SS -23.6000 90.1000 main 2352 2352 O_____________ jtwc_sh SH032017 -23.6000 90.1000 SD 20 1006 -2 1008 240 40 13 272
2017026S16127 2017 2 SI MM NOT_NAMED 2017-02-02 15:00:00 SS -23.5448 89.3501 main 2424 2424 P_____________ SH032017 -23.5448 89.3501 SD 20 1006 -2 1008 240 40 14 278
2017026S16127 2017 2 SI MM NOT_NAMED 2017-02-02 18:00:00 SS -23.4000 88.6000 main 2506 2506 O_____________ jtwc_sh SH032017 -23.4000 88.6000 SD 20 1007 -2 1008 240 40 14 285
2017026S16127 2017 2 SI MM NOT_NAMED 2017-02-02 21:00:00 SS -23.1730 87.8869 main 2581 2581 P_____________ SH032017 -23.1730 87.8869 SD 20 1007 -2 1008 240 40 14 291
2017026S16127 2017 2 SI MM NOT_NAMED 2017-02-03 00:00:00 SS -22.9000 87.2000 main 2638 O_____________ jtwc_sh SH032017 -22.9000 87.2000 SD 20 1007 -2 1008 240 40 14 293

About IBTrACS Database

This database is a web-friendly format of International Best Track Archive for Climate Stewardship (IBTrACS), a global best track data archive curated by NOAA dating back to 1842.

Updated: 2021-10-08